createdAt,value
2023-02-17T00:00:57.077Z,57.11
2023-02-17T00:03:25.229Z,57.37
2023-02-17T00:05:52.856Z,57.35
2023-02-17T00:08:20.058Z,57.33
2023-02-17T00:10:55.881Z,57.46
2023-02-17T00:13:22.947Z,57.58
2023-02-17T00:15:50.042Z,57.55
2023-02-17T00:18:17.074Z,57.25
2023-02-17T00:20:44.095Z,56.88
2023-02-17T00:23:11.081Z,57.12
2023-02-17T00:25:38.816Z,57.42
2023-02-17T00:28:05.997Z,57.36
2023-02-17T00:30:33.272Z,57.57
2023-02-17T00:33:01.351Z,57.73
2023-02-17T00:35:28.460Z,58.14
2023-02-17T00:37:55.587Z,58.14
2023-02-17T00:40:22.626Z,57.82
2023-02-17T00:42:49.641Z,57.71
2023-02-17T00:45:16.969Z,57.60
2023-02-17T00:47:44.013Z,57.66
2023-02-17T00:50:11.110Z,57.71
2023-02-17T00:52:38.246Z,57.57
2023-02-17T00:55:05.949Z,57.70
2023-02-17T00:57:32.950Z,58.07
2023-02-17T01:00:01.364Z,57.94
2023-02-17T01:02:30.792Z,57.82
2023-02-17T01:04:57.881Z,57.84
2023-02-17T01:07:25.001Z,57.78
2023-02-17T01:09:52.025Z,57.76
2023-02-17T01:12:19.025Z,57.61
2023-02-17T01:14:46.029Z,57.56
2023-02-17T01:17:13.232Z,57.61
2023-02-17T01:19:40.226Z,57.64
2023-02-17T01:22:07.303Z,57.49
2023-02-17T01:24:34.595Z,57.58
2023-02-17T01:27:03.322Z,57.90
2023-02-17T01:29:30.321Z,57.83
2023-02-17T01:31:57.442Z,57.63
2023-02-17T01:34:27.157Z,57.50
2023-02-17T01:36:54.440Z,57.66
2023-02-17T01:39:21.557Z,57.42
2023-02-17T01:41:48.652Z,57.70
2023-02-17T01:44:22.040Z,57.73
2023-02-17T01:46:52.519Z,57.95
2023-02-17T01:49:37.149Z,57.81
2023-02-17T01:52:10.316Z,57.65
2023-02-17T01:54:52.394Z,58.00
2023-02-17T01:57:23.756Z,58.01
2023-02-17T01:59:51.973Z,57.93
2023-02-17T02:02:19.335Z,57.89
2023-02-17T02:04:51.452Z,57.72
2023-02-17T02:07:23.477Z,57.86
2023-02-17T02:09:56.282Z,58.34
2023-02-17T02:12:26.929Z,57.93
2023-02-17T02:14:57.616Z,58.16
2023-02-17T02:17:40.447Z,57.84
2023-02-17T02:20:25.971Z,58.01
2023-02-17T02:23:05.061Z,58.13
2023-02-17T02:25:32.024Z,58.06
2023-02-17T02:28:36.091Z,57.85
2023-02-17T02:31:12.222Z,58.71
2023-02-17T02:34:19.510Z,58.31
2023-02-17T02:37:00.611Z,58.75
2023-02-17T02:39:38.975Z,59.40
2023-02-17T02:42:11.174Z,59.49
2023-02-17T02:44:38.369Z,59.51
2023-02-17T02:47:26.342Z,59.59
2023-02-17T02:49:53.636Z,59.81
2023-02-17T02:52:33.452Z,59.54
2023-02-17T02:55:23.381Z,60.38
2023-02-17T02:58:13.177Z,60.82
2023-02-17T03:00:59.732Z,60.20
2023-02-17T03:03:59.620Z,59.74
2023-02-17T03:06:32.725Z,59.45
2023-02-17T03:09:06.941Z,59.27
2023-02-17T03:11:33.994Z,59.32
2023-02-17T03:14:09.308Z,59.73
2023-02-17T03:16:38.725Z,59.67
2023-02-17T03:19:07.110Z,59.54
2023-02-17T03:21:36.809Z,60.33
2023-02-17T03:24:04.244Z,60.37
2023-02-17T03:26:31.233Z,61.41
2023-02-17T03:28:58.310Z,61.16
2023-02-17T03:31:25.550Z,61.20
2023-02-17T03:33:52.564Z,60.89
2023-02-17T03:36:19.755Z,60.75
2023-02-17T03:38:47.682Z,61.12
2023-02-17T03:41:14.823Z,61.34
2023-02-17T03:43:41.820Z,61.01
2023-02-17T03:46:12.177Z,61.06
2023-02-17T03:48:39.853Z,61.40
2023-02-17T03:51:12.412Z,62.38
2023-02-17T03:53:40.035Z,62.00
2023-02-17T03:56:07.817Z,62.06
2023-02-17T03:58:35.231Z,62.13
2023-02-17T04:01:02.277Z,61.72
2023-02-17T04:03:29.416Z,62.37
2023-02-17T04:05:56.501Z,62.62
2023-02-17T04:08:24.093Z,63.05
2023-02-17T04:10:56.453Z,62.71
2023-02-17T04:13:23.648Z,62.40
2023-02-17T04:15:51.566Z,62.44
2023-02-17T04:18:19.237Z,62.49
2023-02-17T04:20:48.784Z,62.79
2023-02-17T04:23:16.500Z,63.44
2023-02-17T04:25:43.730Z,62.96
2023-02-17T04:28:11.985Z,62.59
2023-02-17T04:30:39.907Z,62.42
2023-02-17T04:33:07.080Z,61.75
2023-02-17T04:35:34.132Z,62.20
2023-02-17T04:38:01.121Z,61.98
2023-02-17T04:40:28.192Z,61.48
2023-02-17T04:42:55.206Z,61.23
2023-02-17T04:45:22.735Z,61.19
2023-02-17T04:47:49.806Z,61.06
2023-02-17T04:50:17.033Z,60.92
2023-02-17T04:52:44.080Z,60.99
2023-02-17T04:55:11.519Z,60.86
2023-02-17T04:57:39.676Z,60.84
2023-02-17T05:00:08.671Z,60.90
2023-02-17T05:02:35.873Z,60.96
2023-02-17T05:05:03.472Z,60.96
2023-02-17T05:07:31.279Z,60.91
2023-02-17T05:09:58.257Z,60.65
2023-02-17T05:12:25.296Z,60.69
2023-02-17T05:14:52.309Z,60.65
2023-02-17T05:17:19.339Z,60.45
2023-02-17T05:19:46.441Z,60.36
2023-02-17T05:22:13.478Z,60.38
2023-02-17T05:24:40.458Z,60.30
2023-02-17T05:27:08.829Z,60.34
2023-02-17T05:29:35.887Z,60.40
2023-02-17T05:32:03.265Z,60.60
2023-02-17T05:34:30.744Z,61.73
2023-02-17T05:36:57.775Z,61.99
2023-02-17T05:39:25.030Z,61.98
2023-02-17T05:41:52.097Z,62.09
2023-02-17T05:44:19.340Z,62.20
2023-02-17T05:46:46.627Z,62.25
2023-02-17T05:49:13.830Z,62.22
2023-02-17T05:51:40.845Z,62.38
2023-02-17T05:54:07.880Z,62.39
2023-02-17T05:56:34.877Z,62.28
2023-02-17T05:59:01.951Z,62.29
2023-02-17T06:01:29.020Z,61.95
2023-02-17T06:03:56.028Z,62.55
2023-02-17T06:06:23.173Z,62.32
2023-02-17T06:08:50.240Z,61.98
2023-02-17T06:11:17.253Z,62.10
2023-02-17T06:13:44.360Z,61.73
2023-02-17T06:16:11.420Z,61.46
2023-02-17T06:18:38.464Z,61.51
2023-02-17T06:21:05.881Z,61.44
2023-02-17T06:23:33.699Z,61.48
2023-02-17T06:26:00.827Z,60.96
2023-02-17T06:28:27.945Z,61.19
2023-02-17T06:30:54.948Z,61.32
2023-02-17T06:33:21.983Z,61.16
2023-02-17T06:35:52.647Z,61.12
2023-02-17T06:38:19.995Z,60.89
2023-02-17T06:40:47.293Z,60.72
2023-02-17T06:43:14.590Z,60.82
2023-02-17T06:45:41.738Z,60.81
2023-02-17T06:48:08.848Z,60.64
2023-02-17T06:50:36.305Z,61.16
2023-02-17T06:53:03.397Z,60.85
2023-02-17T06:55:30.458Z,60.99
2023-02-17T06:57:57.737Z,60.53
2023-02-17T07:00:24.720Z,60.63
2023-02-17T07:02:51.814Z,61.29
2023-02-17T07:05:19.014Z,61.04
2023-02-17T07:07:46.021Z,60.79
2023-02-17T07:10:13.906Z,60.85
2023-02-17T07:12:41.085Z,61.00
2023-02-17T07:15:12.064Z,60.85
2023-02-17T07:17:39.521Z,60.53
2023-02-17T07:20:07.329Z,60.61
2023-02-17T07:22:34.322Z,60.63
2023-02-17T07:25:01.424Z,60.68
2023-02-17T07:27:30.390Z,60.40
2023-02-17T07:29:57.755Z,60.77
2023-02-17T07:32:24.752Z,60.48
2023-02-17T07:34:51.800Z,60.54
2023-02-17T07:37:21.908Z,60.29
2023-02-17T07:39:49.341Z,59.89
2023-02-17T07:42:16.330Z,59.83
2023-02-17T07:44:45.468Z,58.83
2023-02-17T07:47:12.521Z,58.70
2023-02-17T07:49:39.617Z,58.82
2023-02-17T07:52:07.110Z,58.54
2023-02-17T07:54:34.121Z,58.05
2023-02-17T07:57:01.158Z,58.07
2023-02-17T07:59:28.259Z,57.86
2023-02-17T08:01:55.336Z,57.19
2023-02-17T08:04:22.459Z,57.97
2023-02-17T08:06:49.531Z,57.80
2023-02-17T08:09:35.254Z,57.24
2023-02-17T08:12:20.949Z,57.32
2023-02-17T08:14:47.976Z,56.71
2023-02-17T08:17:16.040Z,56.31
2023-02-17T08:19:48.659Z,56.14
2023-02-17T08:22:19.243Z,55.62
2023-02-17T08:24:46.427Z,56.04
2023-02-17T08:27:15.626Z,55.40
2023-02-17T08:29:43.154Z,55.88
2023-02-17T08:32:10.263Z,55.98
2023-02-17T08:34:37.574Z,55.57
2023-02-17T08:37:06.420Z,55.59
2023-02-17T08:39:34.064Z,55.65
2023-02-17T08:42:02.296Z,55.70
2023-02-17T08:44:29.365Z,54.85
2023-02-17T08:46:56.622Z,55.47
2023-02-17T08:49:27.042Z,53.91
2023-02-17T08:51:54.430Z,54.06
2023-02-17T08:54:21.434Z,54.32
2023-02-17T08:56:48.530Z,54.39
2023-02-17T08:59:15.836Z,53.47
2023-02-17T09:01:43.819Z,53.28
2023-02-17T09:04:12.679Z,53.00
2023-02-17T09:06:49.933Z,53.35
2023-02-17T09:09:20.857Z,53.85
2023-02-17T09:11:48.461Z,53.88
2023-02-17T09:14:15.513Z,53.23
2023-02-17T09:16:42.625Z,53.15
2023-02-17T09:19:09.683Z,53.55
2023-02-17T09:21:37.208Z,53.43
2023-02-17T09:24:04.593Z,53.53
2023-02-17T09:26:31.629Z,52.92
2023-02-17T09:28:59.245Z,53.60
2023-02-17T09:31:27.419Z,53.55
2023-02-17T09:33:55.482Z,53.45
2023-02-17T09:36:26.342Z,53.53
2023-02-17T09:38:54.179Z,53.56
2023-02-17T09:41:23.999Z,52.88
2023-02-17T09:43:52.598Z,53.13
2023-02-17T09:46:29.902Z,53.65
2023-02-17T09:49:02.588Z,53.43
2023-02-17T09:51:51.092Z,53.10
2023-02-17T09:54:26.754Z,53.32
2023-02-17T09:56:57.202Z,53.33
2023-02-17T09:59:43.098Z,53.06
2023-02-17T10:02:19.457Z,53.23
2023-02-17T10:04:48.769Z,53.32
2023-02-17T10:07:25.899Z,53.53
2023-02-17T10:09:55.935Z,53.98
2023-02-17T10:12:28.136Z,54.08
2023-02-17T10:14:57.851Z,53.88
2023-02-17T10:17:47.247Z,53.25
2023-02-17T10:20:19.586Z,54.61
2023-02-17T10:22:52.914Z,54.11
2023-02-17T10:26:05.654Z,54.14
2023-02-17T10:28:48.440Z,54.11
2023-02-17T10:31:45.922Z,54.24
2023-02-17T10:34:19.333Z,54.02
2023-02-17T10:37:25.163Z,53.99
2023-02-17T10:39:55.241Z,55.00
2023-02-17T10:42:29.664Z,55.47
2023-02-17T10:45:13.561Z,54.80
2023-02-17T10:47:41.265Z,53.94
2023-02-17T10:50:28.638Z,54.13
2023-02-17T10:52:56.591Z,53.89
2023-02-17T10:55:41.886Z,54.34
2023-02-17T10:58:19.829Z,54.02
2023-02-17T11:00:49.860Z,53.66
2023-02-17T11:03:28.779Z,53.88
2023-02-17T11:05:58.977Z,53.82
2023-02-17T11:08:49.311Z,54.73
2023-02-17T11:11:17.980Z,54.74
2023-02-17T11:14:03.724Z,54.47
2023-02-17T11:16:44.299Z,54.31
2023-02-17T11:19:30.430Z,54.01
2023-02-17T11:22:00.415Z,54.28
2023-02-17T11:24:29.448Z,54.14
2023-02-17T11:27:03.114Z,53.65
2023-02-17T11:29:30.744Z,54.28
2023-02-17T11:32:07.357Z,54.07
2023-02-17T11:34:40.761Z,54.51
2023-02-17T11:37:14.024Z,53.90
2023-02-17T11:39:44.723Z,54.90
2023-02-17T11:42:26.258Z,53.91
2023-02-17T11:44:56.527Z,54.14
2023-02-17T11:47:38.237Z,54.01
2023-02-17T11:50:39.035Z,53.59
2023-02-17T11:53:23.450Z,53.79
2023-02-17T11:56:19.936Z,53.64
2023-02-17T11:59:17.649Z,53.52
2023-02-17T12:01:56.782Z,54.26
2023-02-17T12:04:51.971Z,53.55
2023-02-17T12:07:31.446Z,54.12
2023-02-17T12:10:04.802Z,53.25
2023-02-17T12:13:07.385Z,53.59
2023-02-17T12:15:54.391Z,54.65
2023-02-17T12:18:45.077Z,53.94
2023-02-17T12:21:20.862Z,54.74
2023-02-17T12:24:49.216Z,54.33
2023-02-17T12:27:34.199Z,54.57
2023-02-17T12:30:31.659Z,55.05
2023-02-17T12:33:07.880Z,54.52
2023-02-17T12:36:03.177Z,55.09
2023-02-17T12:38:37.272Z,55.31
2023-02-17T12:41:36.706Z,54.54
2023-02-17T12:44:10.721Z,55.33
2023-02-17T12:46:43.897Z,55.12
2023-02-17T12:49:34.823Z,54.92
2023-02-17T12:52:11.336Z,54.93
2023-02-17T12:54:42.053Z,55.01
2023-02-17T12:57:11.667Z,54.57
2023-02-17T12:59:41.635Z,55.38
2023-02-17T13:02:15.249Z,55.44
2023-02-17T13:04:44.689Z,54.67
2023-02-17T13:07:30.184Z,54.59
2023-02-17T13:09:57.847Z,54.93
2023-02-17T13:12:24.849Z,55.17
2023-02-17T13:15:00.482Z,55.08
2023-02-17T13:17:37.063Z,55.01
2023-02-17T13:20:25.500Z,55.17
2023-02-17T13:23:04.874Z,55.72
2023-02-17T13:25:37.540Z,55.39
2023-02-17T13:28:18.758Z,55.77
2023-02-17T13:30:48.937Z,55.17
2023-02-17T13:33:43.240Z,55.11
2023-02-17T13:36:33.365Z,55.75
2023-02-17T13:39:26.243Z,55.15
2023-02-17T13:41:59.310Z,55.76
2023-02-17T13:44:30.201Z,55.33
2023-02-17T13:47:19.594Z,55.46
2023-02-17T13:49:54.335Z,55.34
2023-02-17T13:52:27.646Z,55.73
2023-02-17T13:54:57.009Z,55.40
2023-02-17T13:57:33.634Z,55.19
2023-02-17T14:00:18.946Z,55.23
2023-02-17T14:02:49.042Z,55.20
2023-02-17T14:05:27.277Z,55.45
2023-02-17T14:08:00.582Z,56.72
2023-02-17T14:10:28.067Z,56.51
2023-02-17T14:12:55.664Z,56.16
2023-02-17T14:15:26.716Z,56.23
2023-02-17T14:17:54.260Z,56.00
2023-02-17T14:20:39.410Z,55.71
2023-02-17T14:23:14.257Z,55.55
2023-02-17T14:25:46.741Z,55.61
2023-02-17T14:28:25.412Z,56.61
2023-02-17T14:30:53.486Z,56.50
2023-02-17T14:33:24.665Z,55.96
2023-02-17T14:36:09.244Z,56.47
2023-02-17T14:38:40.829Z,56.37
2023-02-17T14:41:11.844Z,55.97
2023-02-17T14:43:38.926Z,55.80
2023-02-17T14:46:06.322Z,55.57
2023-02-17T14:48:33.496Z,56.56
2023-02-17T14:51:00.622Z,55.95
2023-02-17T14:53:33.288Z,56.63
2023-02-17T14:56:07.744Z,56.59
2023-02-17T14:58:35.301Z,57.36
2023-02-17T15:01:02.641Z,56.75
2023-02-17T15:03:29.727Z,56.71
2023-02-17T15:05:56.918Z,57.59
2023-02-17T15:08:34.117Z,58.22
2023-02-17T15:11:02.369Z,57.93
2023-02-17T15:13:31.887Z,57.20
2023-02-17T15:15:59.502Z,57.37
2023-02-17T15:18:28.148Z,57.50
2023-02-17T15:20:55.695Z,57.14
2023-02-17T15:23:25.837Z,57.46
2023-02-17T15:25:55.587Z,57.62
2023-02-17T15:28:22.895Z,57.82
2023-02-17T15:30:54.831Z,57.87
2023-02-17T15:33:23.865Z,58.04
2023-02-17T15:35:56.506Z,58.26
2023-02-17T15:38:24.653Z,57.71
2023-02-17T15:40:51.790Z,57.52
2023-02-17T15:43:23.107Z,57.75
2023-02-17T15:45:50.325Z,58.09
2023-02-17T15:48:24.549Z,57.76
2023-02-17T15:50:52.556Z,57.83
2023-02-17T15:53:19.971Z,57.81
2023-02-17T15:55:47.581Z,58.00
2023-02-17T15:58:17.379Z,57.78
2023-02-17T16:00:50.066Z,57.98
2023-02-17T16:03:17.596Z,57.28
2023-02-17T16:05:44.782Z,57.57
2023-02-17T16:08:11.973Z,57.99
2023-02-17T16:10:42.231Z,57.90
2023-02-17T16:13:14.833Z,57.83
2023-02-17T16:15:42.899Z,57.42
2023-02-17T16:18:21.411Z,57.57
2023-02-17T16:20:49.317Z,58.15
2023-02-17T16:23:16.320Z,58.00
2023-02-17T16:25:45.219Z,58.14
2023-02-17T16:28:21.441Z,57.80
2023-02-17T16:30:49.720Z,58.02
2023-02-17T16:33:17.786Z,57.43
2023-02-17T16:35:44.876Z,58.03
2023-02-17T16:38:23.020Z,58.16
2023-02-17T16:40:52.589Z,57.84
2023-02-17T16:43:23.036Z,57.86
2023-02-17T16:45:57.203Z,58.12
2023-02-17T16:48:28.576Z,58.25
2023-02-17T16:50:56.305Z,58.66
2023-02-17T16:53:23.533Z,58.90
2023-02-17T16:55:52.794Z,58.47
2023-02-17T16:58:24.777Z,58.72
2023-02-17T17:00:55.073Z,58.91
2023-02-17T17:03:22.793Z,59.78
2023-02-17T17:05:52.326Z,59.41
2023-02-17T17:08:21.597Z,59.04
2023-02-17T17:10:49.589Z,58.56
2023-02-17T17:13:16.852Z,58.72
2023-02-17T17:15:45.604Z,58.88
2023-02-17T17:18:21.451Z,59.08
2023-02-17T17:20:49.037Z,59.46
2023-02-17T17:23:16.617Z,59.17
2023-02-17T17:25:46.742Z,60.15
2023-02-17T17:28:16.251Z,59.60
2023-02-17T17:30:43.597Z,59.61
2023-02-17T17:33:10.710Z,59.63
2023-02-17T17:35:37.918Z,59.52
2023-02-17T17:38:05.212Z,59.65
2023-02-17T17:40:48.722Z,59.43
2023-02-17T17:43:18.892Z,59.85
2023-02-17T17:45:46.995Z,59.67
2023-02-17T17:48:15.232Z,59.84
2023-02-17T17:50:43.236Z,60.05
2023-02-17T17:53:10.585Z,59.63
2023-02-17T17:55:37.840Z,59.67
2023-02-17T17:58:05.116Z,60.02
2023-02-17T18:00:32.338Z,60.17
2023-02-17T18:02:59.381Z,60.06
2023-02-17T18:05:26.538Z,60.02
2023-02-17T18:07:53.818Z,60.90
2023-02-17T18:10:20.961Z,60.88
2023-02-17T18:12:48.755Z,61.06
2023-02-17T18:15:17.378Z,60.71
2023-02-17T18:17:46.683Z,61.71
2023-02-17T18:20:14.578Z,61.51
2023-02-17T18:22:41.672Z,61.06
2023-02-17T18:25:09.404Z,60.81
2023-02-17T18:27:41.447Z,60.46
2023-02-17T18:30:10.294Z,60.63
2023-02-17T18:32:37.335Z,60.72
2023-02-17T18:35:05.236Z,60.58
2023-02-17T18:37:33.106Z,60.58
2023-02-17T18:40:01.246Z,61.47
2023-02-17T18:42:30.374Z,62.58
2023-02-17T18:44:57.412Z,62.04
2023-02-17T18:47:24.441Z,62.05
2023-02-17T18:49:51.992Z,61.67
2023-02-17T18:52:19.076Z,61.41
2023-02-17T18:54:46.253Z,61.17
2023-02-17T18:57:13.597Z,61.25
2023-02-17T18:59:40.610Z,61.09
2023-02-17T19:02:10.114Z,61.36
2023-02-17T19:04:37.177Z,61.46
2023-02-17T19:07:07.068Z,61.37
2023-02-17T19:09:36.440Z,61.69
2023-02-17T19:12:04.018Z,62.10
2023-02-17T19:14:32.349Z,62.18
2023-02-17T19:16:59.395Z,62.57
2023-02-17T19:19:29.338Z,61.85
2023-02-17T19:21:56.358Z,61.88
2023-02-17T19:24:23.581Z,62.21
2023-02-17T19:26:50.659Z,62.02
2023-02-17T19:29:17.819Z,62.25
2023-02-17T19:31:44.908Z,61.94
2023-02-17T19:34:12.177Z,62.23
2023-02-17T19:36:39.256Z,62.14
2023-02-17T19:39:06.357Z,63.30
2023-02-17T19:41:35.696Z,63.40
2023-02-17T19:44:03.089Z,63.62
2023-02-17T19:46:30.199Z,62.85
2023-02-17T19:48:57.256Z,62.58
2023-02-17T19:51:24.385Z,62.44
2023-02-17T19:53:51.504Z,63.02
2023-02-17T19:56:20.474Z,62.23
2023-02-17T19:58:48.456Z,63.04
2023-02-17T20:01:19.648Z,62.57
2023-02-17T20:03:46.759Z,63.09
2023-02-17T20:06:17.434Z,62.61
2023-02-17T20:08:45.964Z,63.03
2023-02-17T20:11:14.462Z,63.65
2023-02-17T20:13:46.177Z,64.07
2023-02-17T20:16:15.397Z,63.62
2023-02-17T20:18:44.954Z,63.60
2023-02-17T20:21:15.025Z,63.20
2023-02-17T20:23:42.330Z,62.84
2023-02-17T20:26:13.210Z,62.75
2023-02-17T20:28:40.677Z,62.94
2023-02-17T20:31:08.880Z,62.57
2023-02-17T20:33:36.498Z,62.30
2023-02-17T20:36:05.255Z,62.85
2023-02-17T20:38:32.639Z,63.21
2023-02-17T20:41:00.417Z,63.18
2023-02-17T20:43:27.591Z,63.37
2023-02-17T20:45:54.780Z,63.69
2023-02-17T20:48:27.516Z,62.92
2023-02-17T20:50:56.004Z,63.73
2023-02-17T20:53:24.096Z,63.50
2023-02-17T20:55:51.565Z,63.28
2023-02-17T20:58:19.084Z,63.41
2023-02-17T21:00:46.305Z,62.92
2023-02-17T21:03:13.420Z,62.92
2023-02-17T21:05:40.546Z,62.77
2023-02-17T21:08:07.763Z,63.10
2023-02-17T21:10:35.138Z,62.97
2023-02-17T21:13:02.236Z,62.94
2023-02-17T21:15:29.365Z,64.00
2023-02-17T21:17:56.410Z,64.47
2023-02-17T21:20:24.644Z,63.55
2023-02-17T21:22:51.818Z,64.61
2023-02-17T21:25:19.053Z,64.15
2023-02-17T21:27:46.162Z,64.51
2023-02-17T21:30:14.413Z,63.84
2023-02-17T21:32:41.803Z,64.37
2023-02-17T21:35:10.369Z,65.01
2023-02-17T21:37:39.128Z,64.79
2023-02-17T21:40:10.807Z,64.11
2023-02-17T21:42:56.720Z,64.00
2023-02-17T21:45:24.767Z,63.66
2023-02-17T21:47:52.043Z,63.80
2023-02-17T21:50:19.284Z,63.42
2023-02-17T21:52:46.370Z,63.50
2023-02-17T21:55:13.678Z,63.43
2023-02-17T21:57:40.829Z,63.48
2023-02-17T22:00:09.002Z,63.42
2023-02-17T22:02:45.009Z,63.44
2023-02-17T22:05:12.239Z,63.22
2023-02-17T22:07:39.261Z,63.21
2023-02-17T22:10:06.944Z,63.26
2023-02-17T22:12:36.553Z,63.47
2023-02-17T22:15:05.823Z,63.81
2023-02-17T22:17:34.964Z,63.85
2023-02-17T22:20:03.573Z,63.81
2023-02-17T22:22:31.038Z,64.34
2023-02-17T22:24:58.080Z,64.85
2023-02-17T22:27:25.152Z,65.09
2023-02-17T22:29:52.148Z,65.07
2023-02-17T22:32:19.167Z,65.00
2023-02-17T22:34:46.194Z,65.30
2023-02-17T22:37:13.345Z,65.22
2023-02-17T22:39:40.327Z,65.74
2023-02-17T22:42:07.299Z,65.42
2023-02-17T22:44:34.321Z,64.52
2023-02-17T22:47:01.391Z,65.55
2023-02-17T22:49:28.454Z,65.20
2023-02-17T22:51:55.449Z,65.10
2023-02-17T22:54:22.462Z,64.31
2023-02-17T22:56:49.532Z,64.64
2023-02-17T22:59:16.497Z,64.51
2023-02-17T23:01:43.505Z,64.49
2023-02-17T23:04:13.554Z,64.57
2023-02-17T23:06:41.544Z,64.01
2023-02-17T23:09:12.179Z,64.17
2023-02-17T23:11:57.787Z,64.31
2023-02-17T23:14:36.655Z,65.11
2023-02-17T23:17:09.595Z,65.78
2023-02-17T23:19:38.157Z,65.85
2023-02-17T23:22:09.241Z,65.23
2023-02-17T23:24:36.483Z,65.13
2023-02-17T23:27:04.451Z,65.22
2023-02-17T23:29:32.389Z,64.86
2023-02-17T23:31:59.797Z,64.62
2023-02-17T23:34:28.603Z,64.53
2023-02-17T23:36:56.056Z,64.55
2023-02-17T23:39:23.263Z,64.60
2023-02-17T23:41:50.307Z,64.51
2023-02-17T23:44:17.406Z,64.64
2023-02-17T23:46:45.208Z,64.47
2023-02-17T23:49:18.093Z,64.59
2023-02-17T23:51:47.285Z,64.44
2023-02-17T23:54:51.819Z,64.96
2023-02-17T23:57:56.504Z,64.26
